Time;durP1;ratioP1;P1;durP2;ratioP2;P2;SDS_P1;SDS_P2;PMS_P1;PMS_P2;Temp;Humidity;BMP_temperature;BMP_pressure;BME280_temperature;BME280_humidity;BME280_pressure;Samples;Min_cycle;Max_cycle;Signal;HPM_P1;HPM_P2
2022/07/12 00:01:37;;;;;;;9.93;6.47;;;;;;;;;;4967184;28;20113;-76
2022/07/12 00:04:03;;;;;;;11.15;7.25;;;;;;;;;;4987257;28;20061;-77
2022/07/12 00:06:28;;;;;;;9.32;6.60;;;;;;;;;;4987002;28;20026;-76
2022/07/12 00:08:54;;;;;;;10.07;5.78;;;;;;;;;;5003053;28;20040;-77
2022/07/12 00:11:19;;;;;;;9.38;6.30;;;;;;;;;;4998593;28;20040;-76
2022/07/12 00:13:44;;;;;;;11.20;6.68;;;;;;;;;;4981380;28;20026;-77
2022/07/12 00:16:11;;;;;;;11.73;7.60;;;;;;;;;;4994346;28;20117;-75
2022/07/12 00:18:36;;;;;;;13.23;7.78;;;;;;;;;;5002770;28;20033;-77
2022/07/12 00:21:01;;;;;;;11.02;7.25;;;;;;;;;;5003427;28;20453;-76
2022/07/12 00:23:27;;;;;;;8.82;6.38;;;;;;;;;;5002235;28;20117;-76
2022/07/12 00:25:52;;;;;;;7.53;5.43;;;;;;;;;;4984925;28;20834;-76
2022/07/12 00:28:20;;;;;;;8.30;5.90;;;;;;;;;;5001397;28;20049;-76
2022/07/12 00:30:46;;;;;;;9.30;5.10;;;;;;;;;;4978448;28;20502;-77
2022/07/12 00:33:11;;;;;;;8.52;6.00;;;;;;;;;;4991887;28;20029;-76
2022/07/12 00:35:36;;;;;;;8.80;5.00;;;;;;;;;;5018568;28;20557;-76
2022/07/12 00:38:02;;;;;;;9.75;5.35;;;;;;;;;;4978694;28;20133;-76
2022/07/12 00:40:27;;;;;;;7.78;5.03;;;;;;;;;;4987420;28;20035;-76
2022/07/12 00:42:55;;;;;;;6.50;4.38;;;;;;;;;;4975315;28;20368;-76
2022/07/12 00:45:21;;;;;;;9.60;4.90;;;;;;;;;;5003355;28;20070;-76
2022/07/12 00:47:46;;;;;;;9.05;5.40;;;;;;;;;;4992983;28;20053;-76
2022/07/12 00:50:19;;;;;;;11.13;6.15;;;;;;;;;;5002329;28;20040;-75
2022/07/12 00:52:45;;;;;;;10.20;6.55;;;;;;;;;;5001570;28;20033;-76
2022/07/12 00:55:11;;;;;;;10.30;6.22;;;;;;;;;;5000796;28;22386;-77
2022/07/12 00:57:37;;;;;;;7.70;5.30;;;;;;;;;;5001908;28;20544;-76
2022/07/12 01:00:05;;;;;;;8.93;5.90;;;;;;;;;;5010667;28;20042;-76
2022/07/12 01:02:30;;;;;;;9.77;6.43;;;;;;;;;;5019554;28;20029;-76
2022/07/12 01:04:56;;;;;;;7.95;5.68;;;;;;;;;;5015534;28;20026;-76
2022/07/12 01:07:24;;;;;;;7.95;5.82;;;;;;;;;;5019511;28;20413;-76
2022/07/12 01:09:50;;;;;;;10.48;5.72;;;;;;;;;;4984998;28;20054;-76
2022/07/12 01:12:15;;;;;;;8.70;5.70;;;;;;;;;;4998479;28;20084;-76
2022/07/12 01:14:40;;;;;;;9.18;5.57;;;;;;;;;;4997838;28;20034;-77
2022/07/12 01:17:06;;;;;;;8.18;5.38;;;;;;;;;;5001194;28;20068;-77
2022/07/12 01:19:32;;;;;;;7.07;5.47;;;;;;;;;;5002008;28;20436;-76
2022/07/12 01:21:57;;;;;;;8.02;5.55;;;;;;;;;;5002716;28;20026;-76
2022/07/12 01:24:23;;;;;;;8.45;5.60;;;;;;;;;;4959831;28;20470;-75
2022/07/12 01:26:49;;;;;;;9.82;6.75;;;;;;;;;;5019275;28;20208;-77
2022/07/12 01:29:15;;;;;;;8.25;5.68;;;;;;;;;;5017507;28;20112;-75
2022/07/12 01:31:40;;;;;;;8.77;5.85;;;;;;;;;;5018387;28;20094;-76
2022/07/12 01:34:06;;;;;;;12.00;6.90;;;;;;;;;;5010473;28;20037;-76
2022/07/12 01:36:32;;;;;;;10.55;6.95;;;;;;;;;;4986789;28;20096;-76
2022/07/12 01:38:57;;;;;;;9.93;6.35;;;;;;;;;;4984657;28;20498;-75
2022/07/12 01:41:23;;;;;;;10.95;7.60;;;;;;;;;;5005118;28;20057;-76
2022/07/12 01:43:56;;;;;;;12.27;7.55;;;;;;;;;;5017436;28;20026;-76
2022/07/12 01:46:21;;;;;;;11.15;6.43;;;;;;;;;;4999919;28;20030;-76
2022/07/12 01:48:46;;;;;;;10.40;7.03;;;;;;;;;;5010841;28;20402;-77
2022/07/12 01:51:12;;;;;;;9.07;6.28;;;;;;;;;;5002980;28;20032;-76
2022/07/12 01:53:38;;;;;;;13.90;7.32;;;;;;;;;;5001162;28;20112;-75
2022/07/12 01:56:04;;;;;;;10.35;6.72;;;;;;;;;;4987061;28;20065;-76
2022/07/12 01:58:30;;;;;;;10.07;6.63;;;;;;;;;;4986642;28;20025;-77
2022/07/12 02:00:55;;;;;;;10.45;6.72;;;;;;;;;;4969154;28;20065;-75
2022/07/12 02:03:23;;;;;;;13.23;7.22;;;;;;;;;;5018765;28;20053;-77
2022/07/12 02:05:49;;;;;;;13.82;7.82;;;;;;;;;;4985195;28;20025;-77
2022/07/12 02:08:15;;;;;;;16.02;8.32;;;;;;;;;;5007902;28;20158;-76
2022/07/12 02:10:41;;;;;;;11.55;7.45;;;;;;;;;;4958288;28;20022;-76
2022/07/12 02:13:07;;;;;;;15.23;8.30;;;;;;;;;;5018486;28;20034;-76
2022/07/12 02:15:32;;;;;;;14.20;7.97;;;;;;;;;;4969005;28;20554;-76
2022/07/12 02:17:57;;;;;;;10.73;6.20;;;;;;;;;;4954070;28;20522;-76
2022/07/12 02:20:23;;;;;;;10.65;6.53;;;;;;;;;;4988540;28;20037;-76
2022/07/12 02:22:48;;;;;;;10.13;5.82;;;;;;;;;;4966364;28;20482;-77
2022/07/12 02:25:14;;;;;;;8.85;5.53;;;;;;;;;;5001590;28;20076;-76
2022/07/12 02:27:41;;;;;;;9.23;5.32;;;;;;;;;;5001271;28;20084;-76
2022/07/12 02:30:10;;;;;;;11.55;6.43;;;;;;;;;;4959725;28;20501;-77
2022/07/12 02:32:36;;;;;;;14.05;6.65;;;;;;;;;;4993787;28;20026;-77
2022/07/12 02:35:01;;;;;;;12.88;6.82;;;;;;;;;;4989579;28;20056;-77
2022/07/12 02:37:27;;;;;;;12.45;6.68;;;;;;;;;;4985190;28;20052;-77
2022/07/12 02:40:52;;;;;;;30.05;9.00;;;;;;;;;;4989608;28;20249;-76
2022/07/12 02:42:39;;;;;;;25.83;10.05;;;;;;;;;;4996604;28;20034;-78
2022/07/12 02:45:04;;;;;;;16.13;7.78;;;;;;;;;;5003801;28;20130;-76
2022/07/12 02:47:30;;;;;;;12.98;6.97;;;;;;;;;;5004835;28;20042;-76
2022/07/12 02:49:55;;;;;;;13.35;6.43;;;;;;;;;;4982779;28;20110;-76
2022/07/12 02:52:20;;;;;;;19.75;7.63;;;;;;;;;;4976553;28;20090;-76
2022/07/12 02:54:46;;;;;;;20.80;7.55;;;;;;;;;;4977626;28;20446;-76
2022/07/12 02:57:11;;;;;;;19.63;9.35;;;;;;;;;;4998742;28;20111;-76
2022/07/12 02:59:37;;;;;;;12.45;7.43;;;;;;;;;;5005123;28;20057;-76
2022/07/12 03:02:02;;;;;;;15.35;7.30;;;;;;;;;;5021046;28;20490;-76
2022/07/12 03:04:29;;;;;;;32.80;9.75;;;;;;;;;;5012345;28;20048;-76
2022/07/12 03:06:54;;;;;;;16.98;7.85;;;;;;;;;;4996940;28;20046;-76
2022/07/12 03:09:19;;;;;;;13.07;7.00;;;;;;;;;;5004409;28;20489;-76
2022/07/12 03:11:45;;;;;;;13.45;7.85;;;;;;;;;;4972090;28;20113;-76
2022/07/12 03:14:10;;;;;;;47.83;10.90;;;;;;;;;;5003593;28;20116;-76
2022/07/12 03:16:35;;;;;;;25.98;9.27;;;;;;;;;;4964268;28;20038;-75
2022/07/12 03:19:04;;;;;;;25.13;9.43;;;;;;;;;;4996222;28;20096;-76
2022/07/12 03:21:30;;;;;;;36.92;9.68;;;;;;;;;;4989057;28;20080;-76
2022/07/12 03:23:55;;;;;;;31.75;10.85;;;;;;;;;;4999601;28;20023;-76
2022/07/12 03:26:21;;;;;;;21.50;9.70;;;;;;;;;;4987478;28;20494;-76
2022/07/12 03:28:47;;;;;;;42.17;10.35;;;;;;;;;;4987973;28;20029;-76
2022/07/12 03:31:12;;;;;;;15.30;7.97;;;;;;;;;;4986683;28;20439;-76
2022/07/12 03:33:37;;;;;;;15.52;8.48;;;;;;;;;;4986601;28;20111;-76
2022/07/12 03:36:08;;;;;;;17.08;9.48;;;;;;;;;;4998942;28;20065;-76
2022/07/12 03:38:36;;;;;;;16.38;8.60;;;;;;;;;;4979578;28;20046;-76
2022/07/12 03:41:02;;;;;;;16.95;8.75;;;;;;;;;;5003937;28;20601;-76
2022/07/12 03:43:27;;;;;;;19.83;9.07;;;;;;;;;;4987012;28;20056;-76
2022/07/12 03:45:55;;;;;;;15.13;8.85;;;;;;;;;;4999914;28;20053;-76
2022/07/12 03:48:21;;;;;;;14.10;8.25;;;;;;;;;;5003619;28;20053;-76
2022/07/12 03:50:46;;;;;;;16.52;9.35;;;;;;;;;;5001515;28;20154;-76
2022/07/12 03:53:11;;;;;;;16.13;8.60;;;;;;;;;;4996957;28;20096;-76
2022/07/12 03:55:37;;;;;;;16.98;9.25;;;;;;;;;;4999823;28;20443;-77
2022/07/12 03:58:02;;;;;;;16.70;8.88;;;;;;;;;;5000400;28;20069;-76
2022/07/12 04:00:28;;;;;;;16.60;9.50;;;;;;;;;;4983535;28;21359;-76
2022/07/12 04:02:54;;;;;;;19.38;10.32;;;;;;;;;;4983537;28;20057;-77
2022/07/12 04:05:19;;;;;;;20.98;9.63;;;;;;;;;;5006322;28;20033;-77
2022/07/12 04:07:45;;;;;;;20.25;10.68;;;;;;;;;;4967046;28;20153;-76
2022/07/12 04:10:10;;;;;;;22.63;11.15;;;;;;;;;;5017469;28;20050;-76
2022/07/12 04:12:36;;;;;;;20.02;10.25;;;;;;;;;;4999898;28;20030;-70
2022/07/12 04:15:03;;;;;;;18.30;9.88;;;;;;;;;;5014971;28;20137;-70
2022/07/12 04:17:28;;;;;;;23.23;11.73;;;;;;;;;;5000437;28;20029;-70
2022/07/12 04:19:53;;;;;;;55.60;14.00;;;;;;;;;;5002304;28;20121;-70
2022/07/12 04:22:19;;;;;;;27.92;11.48;;;;;;;;;;5000379;28;21435;-69
2022/07/12 04:24:44;;;;;;;39.88;13.50;;;;;;;;;;4998817;28;20177;-71
2022/07/12 04:27:09;;;;;;;25.63;12.70;;;;;;;;;;4998452;28;20041;-70
2022/07/12 04:29:35;;;;;;;36.28;14.32;;;;;;;;;;5001791;28;20058;-70
2022/07/12 04:32:00;;;;;;;29.48;13.90;;;;;;;;;;4999914;28;20180;-77
2022/07/12 04:34:26;;;;;;;29.80;15.10;;;;;;;;;;4983756;28;20060;-77
2022/07/12 04:36:51;;;;;;;25.60;13.30;;;;;;;;;;4983200;28;20547;-76
2022/07/12 04:39:16;;;;;;;28.15;14.30;;;;;;;;;;4994227;28;20565;-76
2022/07/12 04:41:42;;;;;;;26.27;13.32;;;;;;;;;;5018546;28;20057;-76
2022/07/12 04:44:07;;;;;;;25.90;13.20;;;;;;;;;;5003342;28;20536;-76
2022/07/12 04:46:33;;;;;;;26.67;13.23;;;;;;;;;;5003089;28;20125;-76
2022/07/12 04:48:58;;;;;;;24.65;14.30;;;;;;;;;;4997673;28;20034;-76
2022/07/12 04:51:24;;;;;;;26.42;13.77;;;;;;;;;;5000507;28;20380;-76
2022/07/12 04:53:49;;;;;;;23.95;12.73;;;;;;;;;;5011821;28;20037;-76
2022/07/12 04:56:14;;;;;;;27.05;13.45;;;;;;;;;;4986598;28;20037;-76
2022/07/12 04:58:40;;;;;;;27.38;15.43;;;;;;;;;;4995381;28;20022;-76
2022/07/12 05:01:07;;;;;;;22.67;14.32;;;;;;;;;;4986853;28;20070;-76
2022/07/12 05:03:32;;;;;;;26.65;14.27;;;;;;;;;;5002971;28;20026;-75
2022/07/12 05:05:58;;;;;;;31.75;18.30;;;;;;;;;;5012399;28;20040;-76
2022/07/12 05:08:23;;;;;;;28.35;15.77;;;;;;;;;;5012643;28;20068;-76
2022/07/12 05:10:48;;;;;;;43.15;24.52;;;;;;;;;;4961870;28;20050;-76
2022/07/12 05:13:14;;;;;;;46.00;27.48;;;;;;;;;;4986926;28;20049;-76
2022/07/12 05:15:39;;;;;;;47.85;28.75;;;;;;;;;;4986137;28;20538;-76
2022/07/12 05:18:04;;;;;;;59.28;33.72;;;;;;;;;;4986278;28;20030;-76
2022/07/12 05:20:30;;;;;;;66.88;37.60;;;;;;;;;;5002981;28;20050;-76
2022/07/12 05:22:55;;;;;;;61.92;35.40;;;;;;;;;;4997575;28;20030;-76
2022/07/12 05:25:21;;;;;;;66.05;37.35;;;;;;;;;;5002939;28;20049;-76
2022/07/12 05:27:46;;;;;;;60.20;37.80;;;;;;;;;;5002873;28;20088;-76
2022/07/12 05:30:11;;;;;;;59.55;36.33;;;;;;;;;;5010703;28;20121;-76
2022/07/12 05:32:37;;;;;;;58.75;35.80;;;;;;;;;;5002981;28;20022;-76
2022/07/12 05:35:02;;;;;;;61.47;36.70;;;;;;;;;;5003284;28;20073;-76
2022/07/12 05:37:28;;;;;;;52.92;34.65;;;;;;;;;;4977945;28;20030;-76
2022/07/12 05:39:53;;;;;;;54.65;33.58;;;;;;;;;;5003582;28;20026;-76
2022/07/12 05:42:19;;;;;;;51.25;30.55;;;;;;;;;;4970492;28;20026;-76
2022/07/12 05:44:44;;;;;;;44.92;28.70;;;;;;;;;;4985905;28;20382;-76
2022/07/12 05:47:09;;;;;;;39.97;27.88;;;;;;;;;;5001623;28;20037;-76
2022/07/12 05:49:35;;;;;;;36.35;25.27;;;;;;;;;;5004098;28;20029;-76
2022/07/12 05:54:44;;;;;;;28.30;22.90;;;;;;;;;;5018033;28;20041;-76
2022/07/12 05:57:11;;;;;;;29.63;23.35;;;;;;;;;;5003392;28;21566;-74
2022/07/12 05:59:36;;;;;;;27.10;22.63;;;;;;;;;;4995425;28;20478;-74
2022/07/12 06:02:01;;;;;;;22.75;20.38;;;;;;;;;;5000954;28;20035;-75
2022/07/12 06:04:27;;;;;;;25.85;21.95;;;;;;;;;;5000161;28;20077;-75
2022/07/12 06:06:52;;;;;;;22.73;19.70;;;;;;;;;;4997578;28;20133;-75
2022/07/12 06:09:17;;;;;;;20.27;18.15;;;;;;;;;;4996263;28;20529;-75
2022/07/12 06:11:45;;;;;;;19.25;17.13;;;;;;;;;;4999498;28;20081;-75
2022/07/12 06:14:11;;;;;;;16.10;14.35;;;;;;;;;;5005852;28;20084;-75
2022/07/12 06:16:36;;;;;;;14.63;13.10;;;;;;;;;;4999908;28;20058;-75
2022/07/12 06:19:01;;;;;;;10.82;9.73;;;;;;;;;;4982453;28;20060;-75
2022/07/12 06:21:27;;;;;;;11.48;10.30;;;;;;;;;;4990258;28;20116;-75
2022/07/12 06:23:53;;;;;;;14.95;9.65;;;;;;;;;;5007340;28;20045;-76
2022/07/12 06:26:18;;;;;;;9.52;8.55;;;;;;;;;;5023298;28;20030;-75
2022/07/12 06:28:43;;;;;;;8.18;7.18;;;;;;;;;;4982906;28;20125;-75
2022/07/12 06:31:09;;;;;;;7.82;7.03;;;;;;;;;;5015682;28;20480;-75
2022/07/12 06:33:34;;;;;;;8.13;7.07;;;;;;;;;;4988044;28;20026;-75
2022/07/12 06:36:00;;;;;;;7.93;6.25;;;;;;;;;;5006729;28;20570;-75
2022/07/12 06:38:25;;;;;;;9.95;6.47;;;;;;;;;;4973393;28;20033;-76
2022/07/12 06:40:51;;;;;;;7.50;6.22;;;;;;;;;;4973020;28;20128;-75
2022/07/12 06:43:16;;;;;;;7.32;6.47;;;;;;;;;;4989017;28;20030;-75
2022/07/12 06:45:41;;;;;;;8.27;5.63;;;;;;;;;;5006609;28;20091;-75
2022/07/12 06:48:07;;;;;;;7.72;5.90;;;;;;;;;;5016296;28;20065;-75
2022/07/12 06:50:33;;;;;;;6.43;5.07;;;;;;;;;;5020079;28;20026;-75
2022/07/12 06:52:58;;;;;;;6.72;5.05;;;;;;;;;;5003938;28;20038;-75
2022/07/12 06:55:23;;;;;;;10.73;5.13;;;;;;;;;;4988696;28;20036;-76
2022/07/12 06:57:49;;;;;;;7.15;4.85;;;;;;;;;;5015488;28;20054;-75
2022/07/12 07:00:17;;;;;;;5.35;4.82;;;;;;;;;;4992449;28;20117;-76
2022/07/12 07:02:42;;;;;;;5.70;4.05;;;;;;;;;;5003513;28;20034;-76
2022/07/12 07:05:08;;;;;;;8.32;4.30;;;;;;;;;;5006466;28;20580;-76
2022/07/12 07:07:33;;;;;;;5.40;4.43;;;;;;;;;;4997616;28;20457;-76
2022/07/12 07:09:58;;;;;;;6.05;4.13;;;;;;;;;;5004448;28;20462;-76
2022/07/12 07:12:24;;;;;;;8.68;4.05;;;;;;;;;;5016920;28;20026;-76
2022/07/12 07:14:49;;;;;;;5.07;4.07;;;;;;;;;;5005333;28;20073;-76
2022/07/12 07:17:16;;;;;;;6.63;4.20;;;;;;;;;;5000097;28;20113;-76
2022/07/12 07:19:42;;;;;;;3.63;3.03;;;;;;;;;;5011028;28;20130;-76
2022/07/12 07:22:07;;;;;;;7.63;3.40;;;;;;;;;;5008036;28;20484;-76
2022/07/12 07:24:32;;;;;;;5.72;2.67;;;;;;;;;;5020350;28;20118;-75
2022/07/12 07:26:58;;;;;;;4.90;3.40;;;;;;;;;;5013913;28;20077;-75
2022/07/12 07:32:08;;;;;;;4.25;2.95;;;;;;;;;;5018615;28;20525;-76
2022/07/12 07:34:36;;;;;;;4.78;2.83;;;;;;;;;;4973565;28;20030;-76
2022/07/12 07:37:01;;;;;;;3.80;2.60;;;;;;;;;;5021200;28;20111;-76
2022/07/12 07:39:26;;;;;;;5.75;2.85;;;;;;;;;;5014562;28;20072;-76
2022/07/12 07:41:52;;;;;;;3.85;2.72;;;;;;;;;;5014787;28;20029;-77
2022/07/12 07:44:17;;;;;;;2.95;2.58;;;;;;;;;;4993341;28;20121;-75
2022/07/12 07:46:43;;;;;;;6.60;2.53;;;;;;;;;;5000175;28;20054;-76
2022/07/12 07:49:08;;;;;;;4.55;2.25;;;;;;;;;;4989274;28;20029;-75
2022/07/12 07:51:33;;;;;;;5.07;3.10;;;;;;;;;;5013308;28;20062;-75
2022/07/12 07:53:59;;;;;;;3.90;2.67;;;;;;;;;;4997257;28;20031;-75
2022/07/12 07:56:24;;;;;;;2.65;2.17;;;;;;;;;;4987947;28;20575;-76
2022/07/12 07:58:51;;;;;;;4.57;2.22;;;;;;;;;;4995968;28;20030;-75
2022/07/12 08:01:17;;;;;;;2.50;1.73;;;;;;;;;;5003274;28;20041;-75
2022/07/12 08:03:42;;;;;;;3.95;1.70;;;;;;;;;;5005031;28;20034;-75
2022/07/12 08:06:07;;;;;;;4.63;1.90;;;;;;;;;;4997267;28;20076;-76
2022/07/12 08:08:33;;;;;;;2.03;1.10;;;;;;;;;;4981064;28;20486;-75
2022/07/12 08:10:58;;;;;;;2.22;1.05;;;;;;;;;;5021086;28;20044;-76
2022/07/12 08:13:24;;;;;;;2.97;1.38;;;;;;;;;;5020641;28;20176;-76
2022/07/12 08:15:49;;;;;;;2.25;1.50;;;;;;;;;;5004962;28;20083;-77
2022/07/12 08:18:15;;;;;;;5.45;1.55;;;;;;;;;;4987054;28;20026;-76
2022/07/12 08:20:40;;;;;;;3.55;1.50;;;;;;;;;;4981200;28;20053;-76
2022/07/12 08:23:05;;;;;;;1.50;0.98;;;;;;;;;;5004331;28;20053;-76
2022/07/12 08:25:31;;;;;;;2.53;1.40;;;;;;;;;;4977001;28;20117;-76
2022/07/12 08:27:56;;;;;;;3.60;1.75;;;;;;;;;;4998667;28;20459;-76
2022/07/12 08:30:22;;;;;;;3.50;2.00;;;;;;;;;;5021286;28;20107;-76
2022/07/12 08:32:47;;;;;;;2.92;1.70;;;;;;;;;;5004812;28;20029;-76
2022/07/12 08:35:14;;;;;;;2.67;1.65;;;;;;;;;;5019844;28;20449;-76
2022/07/12 08:37:39;;;;;;;5.13;2.05;;;;;;;;;;5011661;28;20034;-76
2022/07/12 08:40:05;;;;;;;4.57;1.73;;;;;;;;;;5014921;28;20100;-76
2022/07/12 08:42:31;;;;;;;6.60;1.85;;;;;;;;;;5001240;28;20030;-76
2022/07/12 08:44:57;;;;;;;3.08;1.52;;;;;;;;;;5020003;28;20576;-76
2022/07/12 08:47:22;;;;;;;4.03;2.00;;;;;;;;;;5011402;28;20037;-76
2022/07/12 08:50:10;;;;;;;3.40;2.20;;;;;;;;;;5012642;28;20026;-76
2022/07/12 08:52:38;;;;;;;3.65;2.20;;;;;;;;;;5004217;28;20473;-76
2022/07/12 08:55:20;;;;;;;3.30;1.83;;;;;;;;;;4985427;28;20500;-76
2022/07/12 08:57:46;;;;;;;5.15;1.85;;;;;;;;;;5011760;28;20525;-77
2022/07/12 09:00:11;;;;;;;3.17;1.80;;;;;;;;;;5003030;28;20034;-76
2022/07/12 09:02:56;;;;;;;5.57;1.80;;;;;;;;;;4986094;28;20030;-76
2022/07/12 09:05:23;;;;;;;4.13;1.58;;;;;;;;;;4960566;28;20145;-77
2022/07/12 09:07:48;;;;;;;4.65;1.83;;;;;;;;;;4999866;28;20069;-76
2022/07/12 09:10:14;;;;;;;4.00;1.92;;;;;;;;;;4997887;28;20121;-76
2022/07/12 09:12:42;;;;;;;5.03;1.65;;;;;;;;;;5020193;28;20927;-76
2022/07/12 09:15:21;;;;;;;2.83;1.63;;;;;;;;;;5004043;28;20026;-76
2022/07/12 09:17:59;;;;;;;4.30;1.95;;;;;;;;;;4972154;28;20026;-76
2022/07/12 09:20:34;;;;;;;3.35;1.05;;;;;;;;;;4987993;28;20030;-76
2022/07/12 09:23:03;;;;;;;2.75;1.45;;;;;;;;;;5000967;28;20030;-77
2022/07/12 09:25:29;;;;;;;4.13;1.60;;;;;;;;;;4998051;28;20056;-76
2022/07/12 09:27:58;;;;;;;2.00;1.20;;;;;;;;;;5003061;28;20375;-76
2022/07/12 09:30:25;;;;;;;3.10;0.90;;;;;;;;;;4992357;28;20045;-76
2022/07/12 09:38:27;;;;;;;1.45;1.00;;;;;;;;;;4998110;28;20391;-76
2022/07/12 09:40:53;;;;;;;0.95;0.70;;;;;;;;;;4983945;28;20034;-76
2022/07/12 09:43:19;;;;;;;1.35;1.00;;;;;;;;;;4992197;28;20026;-76
2022/07/12 09:45:47;;;;;;;3.30;1.40;;;;;;;;;;4982767;28;20041;-77
2022/07/12 09:48:13;;;;;;;3.63;1.00;;;;;;;;;;5002250;28;20057;-77
2022/07/12 09:50:38;;;;;;;1.85;0.60;;;;;;;;;;5014577;28;20054;-75
2022/07/12 09:53:04;;;;;;;3.05;0.82;;;;;;;;;;4983977;28;20723;-75
2022/07/12 09:55:29;;;;;;;2.42;0.80;;;;;;;;;;4996886;28;20037;-75
2022/07/12 09:57:55;;;;;;;1.38;0.80;;;;;;;;;;5008588;28;20030;-76
2022/07/12 10:00:21;;;;;;;4.07;1.23;;;;;;;;;;5009557;28;20062;-76
2022/07/12 10:02:46;;;;;;;4.55;1.30;;;;;;;;;;4998155;28;20548;-76
2022/07/12 10:05:12;;;;;;;3.60;1.58;;;;;;;;;;5010879;28;20038;-76
2022/07/12 10:07:38;;;;;;;2.33;1.25;;;;;;;;;;4979243;28;20125;-76
2022/07/12 10:10:06;;;;;;;2.17;1.02;;;;;;;;;;4995395;28;20034;-76
2022/07/12 10:12:32;;;;;;;2.22;1.60;;;;;;;;;;5002732;28;20061;-76
2022/07/12 10:15:00;;;;;;;1.88;1.10;;;;;;;;;;5006185;28;20057;-77
2022/07/12 10:17:26;;;;;;;2.45;0.90;;;;;;;;;;4978637;28;20145;-76
2022/07/12 10:20:12;;;;;;;2.97;1.00;;;;;;;;;;4995067;28;20516;-76
2022/07/12 10:22:38;;;;;;;4.07;0.60;;;;;;;;;;5004712;28;20080;-76
2022/07/12 10:25:03;;;;;;;1.00;0.60;;;;;;;;;;4995666;28;20475;-76
2022/07/12 10:27:30;;;;;;;1.48;0.70;;;;;;;;;;4986025;28;20426;-75
2022/07/12 10:30:12;;;;;;;1.20;0.50;;;;;;;;;;5002952;28;20052;-76
2022/07/12 10:32:37;;;;;;;0.90;0.70;;;;;;;;;;4996818;28;20034;-76
2022/07/12 10:35:13;;;;;;;2.20;0.80;;;;;;;;;;4961302;28;20512;-76
2022/07/12 10:37:38;;;;;;;1.55;0.60;;;;;;;;;;5002118;28;20445;-76
2022/07/12 10:40:10;;;;;;;2.88;0.80;;;;;;;;;;5019205;28;20519;-76
2022/07/12 10:42:36;;;;;;;0.60;0.40;;;;;;;;;;5019111;28;20037;-77
2022/07/12 10:45:15;;;;;;;1.25;0.47;;;;;;;;;;5003123;28;20058;-76
2022/07/12 10:48:05;;;;;;;1.33;0.40;;;;;;;;;;4994582;28;20418;-76
2022/07/12 10:50:44;;;;;;;5.20;0.40;;;;;;;;;;5002898;28;20033;-77
2022/07/12 10:53:18;;;;;;;1.45;0.43;;;;;;;;;;5013746;28;20046;-76
2022/07/12 10:56:19;;;;;;;2.40;0.50;;;;;;;;;;5002950;28;20084;-75
2022/07/12 10:58:49;;;;;;;3.53;0.85;;;;;;;;;;4994978;28;20042;-76
2022/07/12 11:01:19;;;;;;;2.70;0.35;;;;;;;;;;4987549;28;20457;-77
2022/07/12 11:03:57;;;;;;;0.30;0.20;;;;;;;;;;5022174;28;20030;-76
2022/07/12 11:06:23;;;;;;;1.27;0.38;;;;;;;;;;5014369;28;20030;-76
2022/07/12 11:08:59;;;;;;;1.05;0.38;;;;;;;;;;4996955;28;20800;-75
2022/07/12 11:11:44;;;;;;;1.42;0.40;;;;;;;;;;5015102;28;20113;-76
2022/07/12 11:14:11;;;;;;;1.83;0.50;;;;;;;;;;5005901;28;20034;-76
2022/07/12 11:16:46;;;;;;;0.75;0.40;;;;;;;;;;5020232;28;21243;-77
2022/07/12 11:19:11;;;;;;;3.00;0.60;;;;;;;;;;4982789;28;20494;-76
2022/07/12 11:21:36;;;;;;;1.90;0.50;;;;;;;;;;4989249;28;20052;-76
2022/07/12 11:24:02;;;;;;;3.25;0.77;;;;;;;;;;4996787;28;20038;-76
2022/07/12 11:26:27;;;;;;;2.97;0.52;;;;;;;;;;5007796;28;20026;-75
2022/07/12 11:28:56;;;;;;;3.15;0.60;;;;;;;;;;5013209;28;20428;-76
2022/07/12 11:31:22;;;;;;;3.05;0.50;;;;;;;;;;5004576;28;20026;-76
2022/07/12 11:33:48;;;;;;;1.60;0.50;;;;;;;;;;5021993;28;20085;-77
2022/07/12 11:36:13;;;;;;;1.83;0.50;;;;;;;;;;5004473;28;20049;-77
2022/07/12 11:38:41;;;;;;;2.03;0.60;;;;;;;;;;5005970;28;20512;-77
2022/07/12 11:41:06;;;;;;;2.50;0.63;;;;;;;;;;5005646;28;20038;-76
2022/07/12 11:43:32;;;;;;;2.15;0.50;;;;;;;;;;5013799;28;20056;-76
2022/07/12 11:45:58;;;;;;;1.40;0.60;;;;;;;;;;5021421;28;20046;-77
2022/07/12 11:48:23;;;;;;;1.13;0.32;;;;;;;;;;5004569;28;20041;-76
2022/07/12 11:50:52;;;;;;;1.00;0.50;;;;;;;;;;5005290;28;20553;-76
2022/07/12 11:53:24;;;;;;;2.88;0.40;;;;;;;;;;4990703;28;20512;-76
2022/07/12 11:55:51;;;;;;;1.15;0.60;;;;;;;;;;5021873;28;20014;-76
2022/07/12 11:58:19;;;;;;;1.27;0.50;;;;;;;;;;5021447;28;20041;-76
2022/07/12 12:00:45;;;;;;;1.27;0.57;;;;;;;;;;4999793;28;20386;-76
2022/07/12 12:03:11;;;;;;;3.67;0.38;;;;;;;;;;5022024;28;20033;-76
2022/07/12 12:05:37;;;;;;;1.75;0.70;;;;;;;;;;5013560;28;20468;-76
2022/07/12 12:08:03;;;;;;;0.85;0.40;;;;;;;;;;4996870;28;20134;-76
2022/07/12 12:10:29;;;;;;;1.63;0.50;;;;;;;;;;5005513;28;20053;-76
2022/07/12 12:12:55;;;;;;;2.50;0.47;;;;;;;;;;5004356;28;20473;-76
2022/07/12 12:15:25;;;;;;;2.58;0.60;;;;;;;;;;5001985;28;20038;-76
2022/07/12 12:17:53;;;;;;;1.60;0.60;;;;;;;;;;5000445;28;20051;-76
2022/07/12 12:20:28;;;;;;;2.30;0.55;;;;;;;;;;4995016;28;20041;-76
2022/07/12 12:23:04;;;;;;;2.95;1.05;;;;;;;;;;5021938;28;20026;-76
2022/07/12 12:25:30;;;;;;;1.42;0.65;;;;;;;;;;5012695;28;20113;-76
2022/07/12 12:28:00;;;;;;;1.90;0.60;;;;;;;;;;5020058;28;20141;-76
2022/07/12 12:30:26;;;;;;;3.38;0.50;;;;;;;;;;5005645;28;20058;-76
2022/07/12 12:32:53;;;;;;;1.95;0.57;;;;;;;;;;5003927;28;20113;-76
2022/07/12 12:35:20;;;;;;;1.80;0.40;;;;;;;;;;5002582;28;20486;-76
2022/07/12 12:38:12;;;;;;;0.60;0.30;;;;;;;;;;4982729;28;20113;-76
2022/07/12 12:40:37;;;;;;;1.23;0.65;;;;;;;;;;5009868;28;20034;-76
2022/07/12 12:43:13;;;;;;;1.35;0.40;;;;;;;;;;5005929;28;20090;-76
2022/07/12 12:45:52;;;;;;;1.70;0.50;;;;;;;;;;5014334;28;20046;-76
2022/07/12 12:48:18;;;;;;;0.98;0.60;;;;;;;;;;5003462;28;20046;-76
2022/07/12 12:50:45;;;;;;;0.52;0.35;;;;;;;;;;5000989;28;20031;-77
2022/07/12 12:53:14;;;;;;;2.25;0.80;;;;;;;;;;5000814;28;20034;-76
2022/07/12 12:55:40;;;;;;;3.95;0.60;;;;;;;;;;5015670;28;20026;-76
2022/07/12 12:58:06;;;;;;;1.52;0.70;;;;;;;;;;5009239;28;20550;-76
2022/07/12 13:00:31;;;;;;;4.45;0.60;;;;;;;;;;4983377;28;20186;-76
2022/07/12 13:02:59;;;;;;;3.42;0.57;;;;;;;;;;4983382;28;20367;-76
2022/07/12 13:05:26;;;;;;;1.42;0.60;;;;;;;;;;5021398;28;20022;-76
2022/07/12 13:07:51;;;;;;;3.20;0.50;;;;;;;;;;4986832;28;20060;-76
2022/07/12 13:10:16;;;;;;;1.00;0.40;;;;;;;;;;5020222;28;20022;-76
2022/07/12 13:12:43;;;;;;;1.65;0.50;;;;;;;;;;5003865;28;20045;-76
2022/07/12 13:15:08;;;;;;;1.65;0.70;;;;;;;;;;5004781;28;20034;-76
2022/07/12 13:17:34;;;;;;;3.40;0.80;;;;;;;;;;5011613;28;20030;-76
2022/07/12 13:19:59;;;;;;;0.70;0.45;;;;;;;;;;5011772;28;20080;-76
2022/07/12 13:22:24;;;;;;;2.40;0.73;;;;;;;;;;5002453;28;20441;-76
2022/07/12 13:24:50;;;;;;;0.82;0.47;;;;;;;;;;5020007;28;20065;-76
2022/07/12 13:27:15;;;;;;;1.13;0.43;;;;;;;;;;5020857;28;20070;-76
2022/07/12 13:29:41;;;;;;;1.30;0.60;;;;;;;;;;5012190;28;20049;-76
2022/07/12 13:32:06;;;;;;;1.88;0.70;;;;;;;;;;5020292;28;20116;-76
2022/07/12 13:34:32;;;;;;;1.50;0.55;;;;;;;;;;5011435;28;20475;-77
2022/07/12 13:36:57;;;;;;;3.97;0.70;;;;;;;;;;5018917;28;20674;-76
2022/07/12 13:42:06;;;;;;;3.75;0.75;;;;;;;;;;4991277;28;20105;-76
2022/07/12 13:44:32;;;;;;;1.95;0.60;;;;;;;;;;5004043;28;20125;-77
2022/07/12 13:46:57;;;;;;;3.13;0.50;;;;;;;;;;5019100;28;20650;-76
2022/07/12 13:49:25;;;;;;;1.45;0.70;;;;;;;;;;4987240;28;20109;-76
2022/07/12 13:51:51;;;;;;;1.33;0.50;;;;;;;;;;5019258;28;20094;-76
2022/07/12 13:54:16;;;;;;;2.75;0.40;;;;;;;;;;5003742;28;20133;-76
2022/07/12 13:56:41;;;;;;;1.30;0.60;;;;;;;;;;5001649;28;20073;-76
2022/07/12 13:59:07;;;;;;;0.95;0.70;;;;;;;;;;5003748;28;20113;-76
2022/07/12 14:01:32;;;;;;;1.77;0.88;;;;;;;;;;5011808;28;20022;-76
2022/07/12 14:03:58;;;;;;;1.75;0.70;;;;;;;;;;5018232;28;20064;-76
2022/07/12 14:06:23;;;;;;;1.60;0.73;;;;;;;;;;5005097;28;20449;-76
2022/07/12 14:08:49;;;;;;;1.33;0.60;;;;;;;;;;5011662;28;20042;-76
2022/07/12 14:11:16;;;;;;;0.95;0.50;;;;;;;;;;5003729;28;22964;-76
2022/07/12 14:13:41;;;;;;;0.30;0.30;;;;;;;;;;5002972;28;20030;-76
2022/07/12 14:16:07;;;;;;;2.40;0.57;;;;;;;;;;5003295;28;20034;-76
2022/07/12 14:18:32;;;;;;;2.65;0.50;;;;;;;;;;5011005;28;20046;-76
2022/07/12 14:20:58;;;;;;;4.53;0.90;;;;;;;;;;5002919;28;20045;-76
2022/07/12 14:23:23;;;;;;;1.52;0.70;;;;;;;;;;5013342;28;20491;-76
2022/07/12 14:25:49;;;;;;;0.65;0.50;;;;;;;;;;4984529;28;20033;-76
2022/07/12 14:28:14;;;;;;;1.98;0.90;;;;;;;;;;5002537;28;20046;-76
2022/07/12 14:30:40;;;;;;;1.30;0.77;;;;;;;;;;5003694;28;20030;-76
2022/07/12 14:33:05;;;;;;;2.05;0.60;;;;;;;;;;5015797;28;20058;-75
2022/07/12 14:35:30;;;;;;;3.60;0.77;;;;;;;;;;5002207;28;20040;-76
2022/07/12 14:37:56;;;;;;;0.68;0.50;;;;;;;;;;4990383;28;20084;-75
2022/07/12 14:40:21;;;;;;;1.13;0.55;;;;;;;;;;5015131;28;20422;-76
2022/07/12 14:42:47;;;;;;;3.15;0.80;;;;;;;;;;4999709;28;20033;-75
2022/07/12 14:45:12;;;;;;;1.75;0.70;;;;;;;;;;4986630;28;20406;-76
2022/07/12 14:47:38;;;;;;;3.05;0.82;;;;;;;;;;5001895;28;20037;-76